sensor_id;sensor_type;location;lat;lon;timestamp;pressure;altitude;pressure_sealevel;temperature;humidity
77685;BME280;66844;46.092;18.268;2023-07-31T00:00:10;99074.75;;;18.72;93.46
77685;BME280;66844;46.092;18.268;2023-07-31T00:00:42;99079.28;;;18.71;93.44
77685;BME280;66844;46.092;18.268;2023-07-31T00:01:14;99073.91;;;18.71;93.30
77685;BME280;66844;46.092;18.268;2023-07-31T00:01:46;99073.75;;;18.73;93.66
77685;BME280;66844;46.092;18.268;2023-07-31T00:02:18;99081.81;;;18.73;93.59
77685;BME280;66844;46.092;18.268;2023-07-31T00:02:52;99074.75;;;18.72;93.35
77685;BME280;66844;46.092;18.268;2023-07-31T00:03:24;99077.28;;;18.73;93.15
77685;BME280;66844;46.092;18.268;2023-07-31T00:03:56;99076.44;;;18.73;93.82
77685;BME280;66844;46.092;18.268;2023-07-31T00:04:28;99072.06;;;18.72;93.61
77685;BME280;66844;46.092;18.268;2023-07-31T00:05:01;99073.06;;;18.71;93.70
77685;BME280;66844;46.092;18.268;2023-07-31T00:05:33;99065.97;;;18.70;93.35
77685;BME280;66844;46.092;18.268;2023-07-31T00:06:05;99068.81;;;18.68;93.51
77685;BME280;66844;46.092;18.268;2023-07-31T00:06:39;99075.75;;;18.71;93.78
77685;BME280;66844;46.092;18.268;2023-07-31T00:07:11;99074.75;;;18.72;93.78
77685;BME280;66844;46.092;18.268;2023-07-31T00:07:43;99073.91;;;18.71;93.96
77685;BME280;66844;46.092;18.268;2023-07-31T00:08:15;99074.75;;;18.72;93.21
77685;BME280;66844;46.092;18.268;2023-07-31T00:08:47;99080.16;;;18.72;93.33
77685;BME280;66844;46.092;18.268;2023-07-31T00:09:19;99067.66;;;18.71;93.05
77685;BME280;66844;46.092;18.268;2023-07-31T00:09:51;99065.09;;;18.69;93.33
77685;BME280;66844;46.092;18.268;2023-07-31T00:10:25;99064.44;;;18.67;93.47
77685;BME280;66844;46.092;18.268;2023-07-31T00:10:57;99074.50;;;18.65;94.22
77685;BME280;66844;46.092;18.268;2023-07-31T00:11:29;99066.56;;;18.64;94.47
77685;BME280;66844;46.092;18.268;2023-07-31T00:12:00;99068.41;;;18.63;94.42
77685;BME280;66844;46.092;18.268;2023-07-31T00:12:32;99073.94;;;18.62;94.30
77685;BME280;66844;46.092;18.268;2023-07-31T00:13:04;99067.00;;;18.59;94.56
77685;BME280;66844;46.092;18.268;2023-07-31T00:13:36;99073.38;;;18.58;94.85
77685;BME280;66844;46.092;18.268;2023-07-31T00:14:08;99071.84;;;18.56;94.98
77685;BME280;66844;46.092;18.268;2023-07-31T00:14:40;99079.09;;;18.55;94.50
77685;BME280;66844;46.092;18.268;2023-07-31T00:15:13;99069.28;;;18.54;95.00
77685;BME280;66844;46.092;18.268;2023-07-31T00:15:45;99072.28;;;18.51;95.04
77685;BME280;66844;46.092;18.268;2023-07-31T00:16:17;99071.41;;;18.51;94.84
77685;BME280;66844;46.092;18.268;2023-07-31T00:16:50;99068.72;;;18.51;95.11
77685;BME280;66844;46.092;18.268;2023-07-31T00:17:23;99067.16;;;18.48;95.22
77685;BME280;66844;46.092;18.268;2023-07-31T00:17:55;99065.34;;;18.49;94.91
77685;BME280;66844;46.092;18.268;2023-07-31T00:18:27;99057.84;;;18.52;94.55
77685;BME280;66844;46.092;18.268;2023-07-31T00:18:59;99067.63;;;18.53;94.30
77685;BME280;66844;46.092;18.268;2023-07-31T00:19:31;99063.50;;;18.49;94.59
77685;BME280;66844;46.092;18.268;2023-07-31T00:20:03;99065.16;;;18.50;94.84
77685;BME280;66844;46.092;18.268;2023-07-31T00:20:35;99068.03;;;18.49;94.63
77685;BME280;66844;46.092;18.268;2023-07-31T00:21:07;99071.41;;;18.51;94.30
77685;BME280;66844;46.092;18.268;2023-07-31T00:21:39;99062.47;;;18.50;94.20
77685;BME280;66844;46.092;18.268;2023-07-31T00:22:11;99064.06;;;18.53;94.08
77685;BME280;66844;46.092;18.268;2023-07-31T00:22:43;99063.31;;;18.51;94.14
77685;BME280;66844;46.092;18.268;2023-07-31T00:23:14;99070.31;;;18.53;94.17
77685;BME280;66844;46.092;18.268;2023-07-31T00:23:46;99066.59;;;18.54;93.59
77685;BME280;66844;46.092;18.268;2023-07-31T00:24:18;99072.00;;;18.54;93.91
77685;BME280;66844;46.092;18.268;2023-07-31T00:24:51;99064.94;;;18.53;94.24
77685;BME280;66844;46.092;18.268;2023-07-31T00:25:23;99072.84;;;18.55;93.87
77685;BME280;66844;46.092;18.268;2023-07-31T00:25:55;99069.16;;;18.56;93.81
77685;BME280;66844;46.092;18.268;2023-07-31T00:26:27;99069.16;;;18.56;93.36
77685;BME280;66844;46.092;18.268;2023-07-31T00:26:59;99070.69;;;18.58;93.77
77685;BME280;66844;46.092;18.268;2023-07-31T00:27:31;99076.94;;;18.59;93.91
77685;BME280;66844;46.092;18.268;2023-07-31T00:28:03;99072.41;;;18.59;93.17
77685;BME280;66844;46.092;18.268;2023-07-31T00:28:35;99072.53;;;18.58;93.59
77685;BME280;66844;46.092;18.268;2023-07-31T00:29:07;99072.41;;;18.59;93.54
77685;BME280;66844;46.092;18.268;2023-07-31T00:29:39;99086.56;;;18.61;93.39
77685;BME280;66844;46.092;18.268;2023-07-31T00:30:11;99079.31;;;18.62;93.16
77685;BME280;66844;46.092;18.268;2023-07-31T00:30:43;99080.03;;;18.64;93.01
77685;BME280;66844;46.092;18.268;2023-07-31T00:31:15;99082.56;;;18.65;93.16
77685;BME280;66844;46.092;18.268;2023-07-31T00:31:47;99078.19;;;18.64;93.25
77685;BME280;66844;46.092;18.268;2023-07-31T00:32:19;99076.31;;;18.65;92.47
77685;BME280;66844;46.092;18.268;2023-07-31T00:32:50;99077.72;;;18.69;92.31
77685;BME280;66844;46.092;18.268;2023-07-31T00:33:23;99083.84;;;18.71;92.24
77685;BME280;66844;46.092;18.268;2023-07-31T00:33:54;99079.59;;;18.68;92.53
77685;BME280;66844;46.092;18.268;2023-07-31T00:34:26;99079.44;;;18.70;92.34
77685;BME280;66844;46.092;18.268;2023-07-31T00:34:58;99073.63;;;18.65;92.61
77685;BME280;66844;46.092;18.268;2023-07-31T00:35:30;99078.88;;;18.66;92.83
77685;BME280;66844;46.092;18.268;2023-07-31T00:36:02;99076.91;;;18.68;92.41
77685;BME280;66844;46.092;18.268;2023-07-31T00:36:34;99081.44;;;18.68;92.51
77685;BME280;66844;46.092;18.268;2023-07-31T00:37:06;99079.75;;;18.67;92.71
77685;BME280;66844;46.092;18.268;2023-07-31T00:37:38;99084.56;;;18.63;92.62
77685;BME280;66844;46.092;18.268;2023-07-31T00:38:10;99084.56;;;18.63;92.40
77685;BME280;66844;46.092;18.268;2023-07-31T00:38:42;99083.72;;;18.63;92.40
77685;BME280;66844;46.092;18.268;2023-07-31T00:39:14;99084.41;;;18.65;92.59
77685;BME280;66844;46.092;18.268;2023-07-31T00:39:46;99081.44;;;18.68;92.17
77685;BME280;66844;46.092;18.268;2023-07-31T00:40:18;99082.44;;;18.67;92.07
77685;BME280;66844;46.092;18.268;2023-07-31T00:40:50;99080.03;;;18.64;92.40
77685;BME280;66844;46.092;18.268;2023-07-31T00:41:22;99080.72;;;18.66;92.61
77685;BME280;66844;46.092;18.268;2023-07-31T00:41:54;99088.50;;;18.69;92.26
77685;BME280;66844;46.092;18.268;2023-07-31T00:42:26;99088.69;;;18.67;92.15
77685;BME280;66844;46.092;18.268;2023-07-31T00:42:58;99092.50;;;18.65;91.82
77685;BME280;66844;46.092;18.268;2023-07-31T00:43:33;99088.81;;;18.66;91.66
77685;BME280;66844;46.092;18.268;2023-07-31T00:44:05;99091.75;;;18.72;91.79
77685;BME280;66844;46.092;18.268;2023-07-31T00:44:37;99092.31;;;18.76;90.66
77685;BME280;66844;46.092;18.268;2023-07-31T00:45:09;99094.31;;;18.74;90.72
77685;BME280;66844;46.092;18.268;2023-07-31T00:45:41;99095.16;;;18.74;89.86
77685;BME280;66844;46.092;18.268;2023-07-31T00:46:14;99101.09;;;18.78;89.31
77685;BME280;66844;46.092;18.268;2023-07-31T00:46:46;99094.41;;;18.82;89.36
77685;BME280;66844;46.092;18.268;2023-07-31T00:47:17;99095.81;;;18.86;88.61
77685;BME280;66844;46.092;18.268;2023-07-31T00:47:50;99094.75;;;18.97;88.32
77685;BME280;66844;46.092;18.268;2023-07-31T00:48:22;99103.53;;;18.99;86.86
77685;BME280;66844;46.092;18.268;2023-07-31T00:48:55;99098.84;;;19.01;86.93
77685;BME280;66844;46.092;18.268;2023-07-31T00:49:27;99099.41;;;19.04;86.07
77685;BME280;66844;46.092;18.268;2023-07-31T00:49:59;99106.31;;;19.07;85.99
77685;BME280;66844;46.092;18.268;2023-07-31T00:50:31;99105.19;;;19.09;85.58
77685;BME280;66844;46.092;18.268;2023-07-31T00:51:04;99109.44;;;19.12;85.89
77685;BME280;66844;46.092;18.268;2023-07-31T00:51:38;99103.88;;;19.13;85.45
77685;BME280;66844;46.092;18.268;2023-07-31T00:52:10;99107.41;;;19.14;85.07
77685;BME280;66844;46.092;18.268;2023-07-31T00:52:42;99104.41;;;19.17;85.42
77685;BME280;66844;46.092;18.268;2023-07-31T00:53:14;99101.72;;;19.17;84.90
77685;BME280;66844;46.092;18.268;2023-07-31T00:53:47;99098.72;;;19.20;84.66
77685;BME280;66844;46.092;18.268;2023-07-31T00:54:19;99100.41;;;19.21;84.34
77685;BME280;66844;46.092;18.268;2023-07-31T00:54:51;99101.13;;;19.23;84.50
77685;BME280;66844;46.092;18.268;2023-07-31T00:55:23;99089.34;;;19.24;83.49
77685;BME280;66844;46.092;18.268;2023-07-31T00:55:56;99103.38;;;19.27;83.60
77685;BME280;66844;46.092;18.268;2023-07-31T00:56:28;99093.44;;;19.28;83.04
77685;BME280;66844;46.092;18.268;2023-07-31T00:57:00;99096.81;;;19.30;82.98
77685;BME280;66844;46.092;18.268;2023-07-31T00:57:33;99090.25;;;19.32;83.59
77685;BME280;66844;46.092;18.268;2023-07-31T00:58:06;99094.66;;;19.33;83.05
77685;BME280;66844;46.092;18.268;2023-07-31T00:58:39;99094.78;;;19.32;82.47
77685;BME280;66844;46.092;18.268;2023-07-31T00:59:11;99095.63;;;19.32;82.36
77685;BME280;66844;46.092;18.268;2023-07-31T00:59:43;99092.63;;;19.35;82.46
77685;BME280;66844;46.092;18.268;2023-07-31T01:00:15;99088.56;;;19.31;82.11
77685;BME280;66844;46.092;18.268;2023-07-31T01:00:47;99092.09;;;19.32;82.21
77685;BME280;66844;46.092;18.268;2023-07-31T01:01:19;99087.72;;;19.31;81.68
77685;BME280;66844;46.092;18.268;2023-07-31T01:01:51;99086.88;;;19.30;81.81
77685;BME280;66844;46.092;18.268;2023-07-31T01:02:23;99087.00;;;19.29;81.72
77685;BME280;66844;46.092;18.268;2023-07-31T01:02:55;99084.31;;;19.29;81.86
77685;BME280;66844;46.092;18.268;2023-07-31T01:03:28;99086.88;;;19.30;81.71
77685;BME280;66844;46.092;18.268;2023-07-31T01:04:00;99081.47;;;19.30;81.38
77685;BME280;66844;46.092;18.268;2023-07-31T01:04:32;99083.00;;;19.33;81.63
77685;BME280;66844;46.092;18.268;2023-07-31T01:05:04;99082.88;;;19.34;81.41
77685;BME280;66844;46.092;18.268;2023-07-31T01:06:36;99083.53;;;19.36;80.64
77685;BME280;66844;46.092;18.268;2023-07-31T01:08:18;99072.06;;;19.34;80.93
77685;BME280;66844;46.092;18.268;2023-07-31T01:09:03;99077.16;;;19.37;80.58
77685;BME280;66844;46.092;18.268;2023-07-31T01:10:34;99077.16;;;19.37;81.44
77685;BME280;66844;46.092;18.268;2023-07-31T01:11:25;99077.47;;;19.34;81.32
77685;BME280;66844;46.092;18.268;2023-07-31T01:12:03;99077.28;;;19.36;80.93
77685;BME280;66844;46.092;18.268;2023-07-31T01:12:38;99080.00;;;19.36;80.68
77685;BME280;66844;46.092;18.268;2023-07-31T01:13:10;99080.00;;;19.36;80.91
77685;BME280;66844;46.092;18.268;2023-07-31T01:13:44;99080.31;;;19.33;80.62
77685;BME280;66844;46.092;18.268;2023-07-31T01:14:16;99076.63;;;19.34;80.84
77685;BME280;66844;46.092;18.268;2023-07-31T01:15:01;99079.16;;;19.35;81.28
77685;BME280;66844;46.092;18.268;2023-07-31T01:15:34;99083.72;;;19.35;80.92
77685;BME280;66844;46.092;18.268;2023-07-31T01:16:07;99085.25;;;19.37;81.40
77685;BME280;66844;46.092;18.268;2023-07-31T01:16:39;99085.94;;;19.39;81.16
77685;BME280;66844;46.092;18.268;2023-07-31T01:17:11;99081.03;;;19.35;80.97
77685;BME280;66844;46.092;18.268;2023-07-31T01:17:43;99076.31;;;19.37;81.33
77685;BME280;66844;46.092;18.268;2023-07-31T01:18:15;99076.00;;;19.40;81.84
77685;BME280;66844;46.092;18.268;2023-07-31T01:18:47;99076.84;;;19.41;81.57
77685;BME280;66844;46.092;18.268;2023-07-31T01:19:22;99073.47;;;19.38;80.97
77685;BME280;66844;46.092;18.268;2023-07-31T01:19:59;99071.91;;;19.36;81.08
77685;BME280;66844;46.092;18.268;2023-07-31T01:20:33;99072.06;;;19.34;81.14
77685;BME280;66844;46.092;18.268;2023-07-31T01:22:23;99067.13;;;19.30;81.53
77685;BME280;66844;46.092;18.268;2023-07-31T01:25:10;99062.19;;;19.25;81.47
77685;BME280;66844;46.092;18.268;2023-07-31T01:25:56;99062.50;;;19.22;81.73
77685;BME280;66844;46.092;18.268;2023-07-31T01:26:34;99063.66;;;19.20;81.59
77685;BME280;66844;46.092;18.268;2023-07-31T01:27:17;99059.94;;;19.21;81.07
77685;BME280;66844;46.092;18.268;2023-07-31T01:28:14;99062.50;;;19.22;81.36
77685;BME280;66844;46.092;18.268;2023-07-31T01:29:12;99065.19;;;19.22;81.09
77685;BME280;66844;46.092;18.268;2023-07-31T01:30:08;99062.50;;;19.22;80.99
77685;BME280;66844;46.092;18.268;2023-07-31T01:30:48;99066.59;;;19.26;80.65
77685;BME280;66844;46.092;18.268;2023-07-31T01:31:23;99075.38;;;19.28;80.75
77685;BME280;66844;46.092;18.268;2023-07-31T01:31:58;99072.66;;;19.28;80.68
77685;BME280;66844;46.092;18.268;2023-07-31T01:32:34;99072.38;;;19.31;80.76
77685;BME280;66844;46.092;18.268;2023-07-31T01:33:07;99068.84;;;19.31;80.46
77685;BME280;66844;46.092;18.268;2023-07-31T01:33:40;99068.13;;;19.29;80.74
77685;BME280;66844;46.092;18.268;2023-07-31T01:34:15;99059.34;;;19.27;80.73
77685;BME280;66844;46.092;18.268;2023-07-31T01:34:49;99067.28;;;19.28;80.63
77685;BME280;66844;46.092;18.268;2023-07-31T01:35:22;99062.06;;;19.27;80.73
77685;BME280;66844;46.092;18.268;2023-07-31T01:35:56;99061.75;;;19.30;80.59
77685;BME280;66844;46.092;18.268;2023-07-31T01:36:30;99068.13;;;19.29;80.65
77685;BME280;66844;46.092;18.268;2023-07-31T01:37:02;99072.66;;;19.28;80.52
77685;BME280;66844;46.092;18.268;2023-07-31T01:37:34;99065.75;;;19.26;80.80
77685;BME280;66844;46.092;18.268;2023-07-31T01:38:06;99063.75;;;19.28;80.59
77685;BME280;66844;46.092;18.268;2023-07-31T01:38:38;99068.97;;;19.29;80.37
77685;BME280;66844;46.092;18.268;2023-07-31T01:39:10;99076.09;;;19.30;80.27
77685;BME280;66844;46.092;18.268;2023-07-31T01:39:42;99078.59;;;19.32;80.10
77685;BME280;66844;46.092;18.268;2023-07-31T01:40:14;99075.75;;;19.33;80.43
77685;BME280;66844;46.092;18.268;2023-07-31T01:40:51;99076.63;;;19.34;80.32
77685;BME280;66844;46.092;18.268;2023-07-31T01:41:24;99073.53;;;19.29;79.81
77685;BME280;66844;46.092;18.268;2023-07-31T01:41:55;99070.81;;;19.29;80.14
77685;BME280;66844;46.092;18.268;2023-07-31T01:42:27;99075.91;;;19.32;80.03
77685;BME280;66844;46.092;18.268;2023-07-31T01:42:59;99072.53;;;19.30;79.75
77685;BME280;66844;46.092;18.268;2023-07-31T01:43:31;99086.88;;;19.30;80.18
77685;BME280;66844;46.092;18.268;2023-07-31T01:44:03;99084.31;;;19.29;80.12
77685;BME280;66844;46.092;18.268;2023-07-31T01:44:35;99074.56;;;19.28;79.78
77685;BME280;66844;46.092;18.268;2023-07-31T01:45:08;99079.63;;;19.31;80.05
77685;BME280;66844;46.092;18.268;2023-07-31T01:45:40;99083.63;;;19.27;79.95
77685;BME280;66844;46.092;18.268;2023-07-31T01:46:12;99078.06;;;19.28;80.22
77685;BME280;66844;46.092;18.268;2023-07-31T01:46:44;99086.56;;;19.33;80.50
77685;BME280;66844;46.092;18.268;2023-07-31T01:47:16;99086.56;;;19.33;80.08
77685;BME280;66844;46.092;18.268;2023-07-31T01:47:48;99086.88;;;19.30;79.65
77685;BME280;66844;46.092;18.268;2023-07-31T01:48:20;99079.78;;;19.29;80.08
77685;BME280;66844;46.092;18.268;2023-07-31T01:48:52;99092.81;;;19.34;79.78
77685;BME280;66844;46.092;18.268;2023-07-31T01:49:24;99084.00;;;19.32;79.53
77685;BME280;66844;46.092;18.268;2023-07-31T01:49:55;99090.25;;;19.32;79.48
77685;BME280;66844;46.092;18.268;2023-07-31T01:50:27;99085.69;;;19.33;79.18
77685;BME280;66844;46.092;18.268;2023-07-31T01:51:00;99089.13;;;19.35;78.86
77685;BME280;66844;46.092;18.268;2023-07-31T01:51:32;99084.72;;;19.34;78.93
77685;BME280;66844;46.092;18.268;2023-07-31T01:52:07;99090.78;;;19.36;79.26
77685;BME280;66844;46.092;18.268;2023-07-31T01:52:39;99094.03;;;19.39;79.48
77685;BME280;66844;46.092;18.268;2023-07-31T01:53:11;99083.41;;;19.38;78.92
77685;BME280;66844;46.092;18.268;2023-07-31T01:53:45;99080.84;;;19.36;79.06
77685;BME280;66844;46.092;18.268;2023-07-31T01:54:16;99077.84;;;19.39;79.34
77685;BME280;66844;46.092;18.268;2023-07-31T01:54:48;99084.94;;;19.41;78.89
77685;BME280;66844;46.092;18.268;2023-07-31T01:55:20;99090.50;;;19.39;78.25
77685;BME280;66844;46.092;18.268;2023-07-31T01:55:52;99088.94;;;19.36;78.22
77685;BME280;66844;46.092;18.268;2023-07-31T01:56:24;99077.28;;;19.36;78.16
77685;BME280;66844;46.092;18.268;2023-07-31T01:56:56;99088.94;;;19.36;78.17
77685;BME280;66844;46.092;18.268;2023-07-31T01:57:28;99077.28;;;19.36;78.08
77685;BME280;66844;46.092;18.268;2023-07-31T01:58:00;99082.41;;;19.39;77.65
77685;BME280;66844;46.092;18.268;2023-07-31T01:58:32;99078.69;;;19.40;77.87
77685;BME280;66844;46.092;18.268;2023-07-31T01:59:04;99085.78;;;19.41;78.13
77685;BME280;66844;46.092;18.268;2023-07-31T01:59:36;99087.81;;;19.39;77.82
77685;BME280;66844;46.092;18.268;2023-07-31T02:00:08;99083.09;;;19.41;77.97
77685;BME280;66844;46.092;18.268;2023-07-31T02:00:40;99078.69;;;19.40;77.71
77685;BME280;66844;46.092;18.268;2023-07-31T02:01:12;99076.44;;;19.35;77.78
77685;BME280;66844;46.092;18.268;2023-07-31T02:01:44;99074.06;;;19.32;77.80
77685;BME280;66844;46.092;18.268;2023-07-31T02:02:16;99079.16;;;19.35;77.66
77685;BME280;66844;46.092;18.268;2023-07-31T02:02:48;99077.28;;;19.36;77.77
77685;BME280;66844;46.092;18.268;2023-07-31T02:03:20;99082.88;;;19.34;77.63
77685;BME280;66844;46.092;18.268;2023-07-31T02:03:52;99082.69;;;19.36;77.74
77685;BME280;66844;46.092;18.268;2023-07-31T02:04:24;99076.31;;;19.37;77.67
77685;BME280;66844;46.092;18.268;2023-07-31T02:04:56;99075.63;;;19.35;77.76
77685;BME280;66844;46.092;18.268;2023-07-31T02:05:28;99075.75;;;19.33;77.56
77685;BME280;66844;46.092;18.268;2023-07-31T02:06:00;99071.75;;;19.37;78.44
77685;BME280;66844;46.092;18.268;2023-07-31T02:06:32;99081.69;;;19.37;77.75
77685;BME280;66844;46.092;18.268;2023-07-31T02:07:04;99077.47;;;19.34;77.38
77685;BME280;66844;46.092;18.268;2023-07-31T02:07:36;99076.44;;;19.35;77.12
77685;BME280;66844;46.092;18.268;2023-07-31T02:08:08;99078.47;;;19.33;77.30
77685;BME280;66844;46.092;18.268;2023-07-31T02:08:40;99078.78;;;19.30;76.98
77685;BME280;66844;46.092;18.268;2023-07-31T02:09:12;99082.00;;;19.34;77.49
77685;BME280;66844;46.092;18.268;2023-07-31T02:09:44;99077.78;;;19.31;77.52
77685;BME280;66844;46.092;18.268;2023-07-31T02:10:16;99085.56;;;19.34;77.42
77685;BME280;66844;46.092;18.268;2023-07-31T02:10:48;99081.03;;;19.35;77.58
77685;BME280;66844;46.092;18.268;2023-07-31T02:11:20;99076.94;;;19.31;77.63
77685;BME280;66844;46.092;18.268;2023-07-31T02:11:51;99080.47;;;19.31;77.50
77685;BME280;66844;46.092;18.268;2023-07-31T02:12:23;99077.06;;;19.29;77.30
77685;BME280;66844;46.092;18.268;2023-07-31T02:12:55;99078.06;;;19.28;77.74
77685;BME280;66844;46.092;18.268;2023-07-31T02:13:27;99075.84;;;19.24;77.91
77685;BME280;66844;46.092;18.268;2023-07-31T02:13:59;99077.38;;;19.26;77.51
77685;BME280;66844;46.092;18.268;2023-07-31T02:14:31;99079.22;;;19.26;77.76
77685;BME280;66844;46.092;18.268;2023-07-31T02:15:03;99087.19;;;19.27;77.27
77685;BME280;66844;46.092;18.268;2023-07-31T02:15:36;99084.50;;;19.27;77.47
77685;BME280;66844;46.092;18.268;2023-07-31T02:16:08;99083.31;;;19.30;77.39
77685;BME280;66844;46.092;18.268;2023-07-31T02:16:40;99088.56;;;19.31;77.43
77685;BME280;66844;46.092;18.268;2023-07-31T02:17:14;99086.69;;;19.32;77.50
77685;BME280;66844;46.092;18.268;2023-07-31T02:17:46;99088.03;;;19.28;77.95
77685;BME280;66844;46.092;18.268;2023-07-31T02:18:18;99086.47;;;19.25;77.70
77685;BME280;66844;46.092;18.268;2023-07-31T02:18:50;99093.56;;;19.26;77.78
77685;BME280;66844;46.092;18.268;2023-07-31T02:19:22;99087.63;;;19.23;77.60
77685;BME280;66844;46.092;18.268;2023-07-31T02:19:54;99092.19;;;19.22;78.06
77685;BME280;66844;46.092;18.268;2023-07-31T02:20:26;99089.16;;;19.25;77.92
77685;BME280;66844;46.092;18.268;2023-07-31T02:20:58;99086.66;;;19.24;77.54
77685;BME280;66844;46.092;18.268;2023-07-31T02:21:30;99082.56;;;19.20;77.37
77685;BME280;66844;46.092;18.268;2023-07-31T02:22:02;99086.78;;;19.22;77.98
77685;BME280;66844;46.092;18.268;2023-07-31T02:22:34;99091.19;;;19.23;77.50
77685;BME280;66844;46.092;18.268;2023-07-31T02:23:06;99090.47;;;19.21;78.41
77685;BME280;66844;46.092;18.268;2023-07-31T02:23:38;99095.28;;;19.27;77.88
77685;BME280;66844;46.092;18.268;2023-07-31T02:24:10;99090.16;;;19.24;77.58
77685;BME280;66844;46.092;18.268;2023-07-31T02:24:42;99086.91;;;19.21;77.77
77685;BME280;66844;46.092;18.268;2023-07-31T02:25:16;99086.09;;;19.20;78.00
77685;BME280;66844;46.092;18.268;2023-07-31T02:25:48;99088.78;;;19.20;77.85
77685;BME280;66844;46.092;18.268;2023-07-31T02:26:20;99084.75;;;19.24;77.78
77685;BME280;66844;46.092;18.268;2023-07-31T02:26:52;99091.31;;;19.22;77.96
77685;BME280;66844;46.092;18.268;2023-07-31T02:27:24;99089.78;;;19.19;77.67
77685;BME280;66844;46.092;18.268;2023-07-31T02:27:59;99094.19;;;19.20;77.76
77685;BME280;66844;46.092;18.268;2023-07-31T02:28:31;99086.38;;;19.17;78.27
77685;BME280;66844;46.092;18.268;2023-07-31T02:29:03;99090.91;;;19.17;78.04
77685;BME280;66844;46.092;18.268;2023-07-31T02:29:35;99088.22;;;19.17;78.25
77685;BME280;66844;46.092;18.268;2023-07-31T02:30:07;99092.78;;;19.16;77.97
77685;BME280;66844;46.092;18.268;2023-07-31T02:30:44;99091.09;;;19.15;77.94
77685;BME280;66844;46.092;18.268;2023-07-31T02:31:18;99098.19;;;19.16;78.12
77685;BME280;66844;46.092;18.268;2023-07-31T02:31:53;99097.47;;;19.14;78.04
77685;BME280;66844;46.092;18.268;2023-07-31T02:32:25;99100.34;;;19.13;78.28
77685;BME280;66844;46.092;18.268;2023-07-31T02:32:57;99098.47;;;19.13;78.43
77685;BME280;66844;46.092;18.268;2023-07-31T02:33:29;99093.94;;;19.14;78.15
77685;BME280;66844;46.092;18.268;2023-07-31T02:34:01;99101.03;;;19.15;78.30
77685;BME280;66844;46.092;18.268;2023-07-31T02:34:33;99093.06;;;19.13;78.25
77685;BME280;66844;46.092;18.268;2023-07-31T02:35:05;99108.44;;;19.13;78.12
77685;BME280;66844;46.092;18.268;2023-07-31T02:35:37;99099.50;;;19.12;77.69
77685;BME280;66844;46.092;18.268;2023-07-31T02:36:09;99105.56;;;19.14;77.81
77685;BME280;66844;46.092;18.268;2023-07-31T02:36:41;99100.16;;;19.14;78.23
77685;BME280;66844;46.092;18.268;2023-07-31T02:37:13;99107.19;;;19.07;78.29
77685;BME280;66844;46.092;18.268;2023-07-31T02:37:45;99114.09;;;19.10;78.26
77685;BME280;66844;46.092;18.268;2023-07-31T02:38:17;99107.19;;;19.07;78.19
77685;BME280;66844;46.092;18.268;2023-07-31T02:38:49;99108.16;;;19.06;78.34
77685;BME280;66844;46.092;18.268;2023-07-31T02:39:21;99106.31;;;19.07;78.80
77685;BME280;66844;46.092;18.268;2023-07-31T02:39:53;99104.63;;;19.06;78.92
77685;BME280;66844;46.092;18.268;2023-07-31T02:40:25;99108.16;;;19.06;78.60
77685;BME280;66844;46.092;18.268;2023-07-31T02:40:56;99106.31;;;19.07;78.45
77685;BME280;66844;46.092;18.268;2023-07-31T02:41:28;99100.56;;;19.02;78.36
77685;BME280;66844;46.092;18.268;2023-07-31T02:42:00;99104.63;;;19.06;78.84
77685;BME280;66844;46.092;18.268;2023-07-31T02:42:32;99100.38;;;19.03;78.35
77685;BME280;66844;46.092;18.268;2023-07-31T02:43:04;99102.41;;;19.01;78.91
77685;BME280;66844;46.092;18.268;2023-07-31T02:43:36;99114.59;;;19.05;78.53
77685;BME280;66844;46.092;18.268;2023-07-31T02:44:08;99100.38;;;19.03;78.68
77685;BME280;66844;46.092;18.268;2023-07-31T02:44:42;99101.53;;;19.01;78.64
77685;BME280;66844;46.092;18.268;2023-07-31T02:45:14;99105.09;;;19.01;79.50
77685;BME280;66844;46.092;18.268;2023-07-31T02:45:46;99098.13;;;18.99;79.09
77685;BME280;66844;46.092;18.268;2023-07-31T02:46:22;99106.41;;;18.97;78.85
77685;BME280;66844;46.092;18.268;2023-07-31T02:46:56;99102.97;;;18.95;79.17
77685;BME280;66844;46.092;18.268;2023-07-31T02:47:28;99105.53;;;18.97;79.43
77685;BME280;66844;46.092;18.268;2023-07-31T02:48:00;99113.63;;;18.97;79.35
77685;BME280;66844;46.092;18.268;2023-07-31T02:48:32;99115.47;;;18.96;79.78
77685;BME280;66844;46.092;18.268;2023-07-31T02:49:04;99107.81;;;18.92;79.45
77685;BME280;66844;46.092;18.268;2023-07-31T02:49:36;99115.06;;;18.91;79.65
77685;BME280;66844;46.092;18.268;2023-07-31T02:50:08;99118.31;;;18.95;79.67
77685;BME280;66844;46.092;18.268;2023-07-31T02:50:41;99125.56;;;18.94;80.00
77685;BME280;66844;46.092;18.268;2023-07-31T02:51:12;99121.47;;;18.90;79.36
77685;BME280;66844;46.092;18.268;2023-07-31T02:51:44;99125.56;;;18.94;79.77
77685;BME280;66844;46.092;18.268;2023-07-31T02:52:16;99119.91;;;18.87;80.05
77685;BME280;66844;46.092;18.268;2023-07-31T02:52:48;99116.53;;;18.85;80.18
77685;BME280;66844;46.092;18.268;2023-07-31T02:53:20;99127.16;;;18.87;79.85
77685;BME280;66844;46.092;18.268;2023-07-31T02:53:53;99120.22;;;18.84;79.84
77685;BME280;66844;46.092;18.268;2023-07-31T02:54:25;99122.06;;;18.84;79.98
77685;BME280;66844;46.092;18.268;2023-07-31T02:54:58;99125.59;;;18.84;79.99
77685;BME280;66844;46.092;18.268;2023-07-31T02:55:30;99126.16;;;18.88;80.51
77685;BME280;66844;46.092;18.268;2023-07-31T02:56:02;99127.84;;;18.89;79.96
77685;BME280;66844;46.092;18.268;2023-07-31T02:56:34;99128.00;;;18.87;80.42
77685;BME280;66844;46.092;18.268;2023-07-31T02:57:06;99125.59;;;18.84;80.01
77685;BME280;66844;46.092;18.268;2023-07-31T02:57:38;99125.78;;;18.83;80.08
77685;BME280;66844;46.092;18.268;2023-07-31T02:58:10;99126.47;;;18.85;79.92